Time;durP1;ratioP1;P1;durP2;ratioP2;P2;SDS_P1;SDS_P2;PMS_P1;PMS_P2;Temp;Humidity;BMP_temperature;BMP_pressure;BME280_temperature;BME280_humidity;BME280_pressure;Samples;Min_cycle;Max_cycle;Signal;HPM_P1;HPM_P2
2022/03/22 00:01:41;;;;;;;29.95;16.63;;;;;;;;;;6187646;28;20465;-69
2022/03/22 00:04:42;;;;;;;28.55;17.52;;;;;;;;;;6189437;28;20494;-69
2022/03/22 00:07:45;;;;;;;29.45;17.38;;;;;;;;;;6189992;28;20133;-69
2022/03/22 00:10:47;;;;;;;28.77;17.52;;;;;;;;;;6185865;28;20604;-70
2022/03/22 00:13:48;;;;;;;27.58;16.83;;;;;;;;;;6185741;28;20518;-69
2022/03/22 00:16:50;;;;;;;29.17;17.88;;;;;;;;;;6185341;28;20188;-70
2022/03/22 00:19:51;;;;;;;30.42;17.48;;;;;;;;;;6186363;28;20051;-70
2022/03/22 00:22:55;;;;;;;29.08;18.00;;;;;;;;;;6180725;28;20055;-70
2022/03/22 00:25:56;;;;;;;30.70;17.23;;;;;;;;;;6177486;28;20148;-69
2022/03/22 00:28:59;;;;;;;27.83;16.80;;;;;;;;;;6187824;28;20050;-70
2022/03/22 00:32:02;;;;;;;26.75;16.35;;;;;;;;;;6184438;28;20494;-70
2022/03/22 00:35:04;;;;;;;29.20;17.13;;;;;;;;;;6187579;28;20108;-70
2022/03/22 00:38:08;;;;;;;33.25;18.30;;;;;;;;;;6184838;28;20068;-70
2022/03/22 00:41:09;;;;;;;31.60;17.33;;;;;;;;;;6193441;28;20046;-70
2022/03/22 00:44:11;;;;;;;28.42;17.73;;;;;;;;;;6187565;28;20452;-70
2022/03/22 00:47:13;;;;;;;29.63;17.33;;;;;;;;;;6189610;28;20125;-71
2022/03/22 00:50:15;;;;;;;29.83;17.75;;;;;;;;;;6185217;28;20573;-70
2022/03/22 00:53:18;;;;;;;33.40;18.65;;;;;;;;;;6186716;28;20130;-70
2022/03/22 00:56:20;;;;;;;28.65;18.52;;;;;;;;;;6181023;28;20773;-70
2022/03/22 01:02:43;;;;;;;30.02;17.55;;;;;;;;;;6182300;28;20042;-71
2022/03/22 01:05:45;;;;;;;32.38;17.20;;;;;;;;;;6180532;28;20592;-72
2022/03/22 01:08:47;;;;;;;30.00;17.30;;;;;;;;;;6183980;28;20132;-71
2022/03/22 01:11:49;;;;;;;36.50;17.23;;;;;;;;;;6190825;28;20556;-71
2022/03/22 01:14:51;;;;;;;31.38;17.90;;;;;;;;;;6187456;28;20078;-70
2022/03/22 01:17:55;;;;;;;37.25;18.48;;;;;;;;;;6190320;28;20482;-70
2022/03/22 01:20:57;;;;;;;33.47;18.40;;;;;;;;;;6187405;28;20034;-70
2022/03/22 01:24:03;;;;;;;28.20;17.13;;;;;;;;;;6187393;28;20148;-69
2022/03/22 01:27:05;;;;;;;29.60;17.45;;;;;;;;;;6186378;28;20051;-69
2022/03/22 01:30:08;;;;;;;36.85;18.55;;;;;;;;;;6185903;28;20058;-73
2022/03/22 01:33:11;;;;;;;33.25;18.30;;;;;;;;;;6181282;28;20094;-73
2022/03/22 01:36:13;;;;;;;31.27;18.50;;;;;;;;;;6179712;28;20495;-73
2022/03/22 01:39:16;;;;;;;31.25;18.23;;;;;;;;;;6178497;28;20205;-72
2022/03/22 01:42:17;;;;;;;35.38;18.75;;;;;;;;;;6176000;28;20043;-70
2022/03/22 01:45:19;;;;;;;32.35;18.70;;;;;;;;;;6174223;28;20050;-69
2022/03/22 01:48:21;;;;;;;36.80;19.90;;;;;;;;;;6185989;28;20055;-70
2022/03/22 01:51:23;;;;;;;41.72;19.40;;;;;;;;;;6195277;28;20104;-70
2022/03/22 01:54:26;;;;;;;34.78;21.63;;;;;;;;;;6191063;28;20050;-70
2022/03/22 01:57:30;;;;;;;36.58;20.25;;;;;;;;;;6192159;28;20071;-70
2022/03/22 02:00:31;;;;;;;34.92;19.05;;;;;;;;;;6187191;28;20050;-70
2022/03/22 02:06:53;;;;;;;32.90;20.75;;;;;;;;;;6187710;28;20134;-70
2022/03/22 02:09:57;;;;;;;31.73;19.65;;;;;;;;;;6186485;28;20054;-70
2022/03/22 02:12:59;;;;;;;35.42;20.65;;;;;;;;;;6188559;28;20082;-71
2022/03/22 02:16:01;;;;;;;37.63;20.52;;;;;;;;;;6186264;28;20125;-70
2022/03/22 02:19:03;;;;;;;33.35;20.52;;;;;;;;;;6187128;28;20054;-70
2022/03/22 02:22:09;;;;;;;36.67;19.55;;;;;;;;;;6184693;28;20185;-71
2022/03/22 02:25:15;;;;;;;32.67;19.25;;;;;;;;;;6195564;28;20139;-70
2022/03/22 02:28:20;;;;;;;36.58;18.35;;;;;;;;;;6192724;28;20054;-71
2022/03/22 02:31:23;;;;;;;31.23;17.83;;;;;;;;;;6199274;28;20418;-70
2022/03/22 02:34:25;;;;;;;32.53;17.85;;;;;;;;;;6190514;28;20162;-70
2022/03/22 02:37:26;;;;;;;31.67;18.17;;;;;;;;;;6193495;28;20112;-70
2022/03/22 02:40:29;;;;;;;33.47;17.83;;;;;;;;;;6192040;28;20070;-70
2022/03/22 02:43:31;;;;;;;30.90;18.08;;;;;;;;;;6190485;28;20129;-70
2022/03/22 02:46:33;;;;;;;31.45;20.20;;;;;;;;;;6187270;28;20058;-70
2022/03/22 02:49:35;;;;;;;29.75;18.58;;;;;;;;;;6185171;28;20057;-70
2022/03/22 02:52:37;;;;;;;33.05;19.40;;;;;;;;;;6184369;28;20038;-70
2022/03/22 02:55:40;;;;;;;33.13;18.95;;;;;;;;;;6182347;28;20133;-70
2022/03/22 02:58:41;;;;;;;32.85;18.70;;;;;;;;;;6185400;28;20042;-70
2022/03/22 03:01:43;;;;;;;36.03;18.83;;;;;;;;;;6188348;28;20104;-70
2022/03/22 03:04:44;;;;;;;29.77;18.23;;;;;;;;;;6191106;28;20046;-70
2022/03/22 03:07:46;;;;;;;30.55;18.42;;;;;;;;;;6185895;28;20101;-70
2022/03/22 03:10:49;;;;;;;34.30;18.85;;;;;;;;;;6191830;28;20133;-70
2022/03/22 03:17:11;;;;;;;29.88;18.60;;;;;;;;;;6191318;28;20458;-70
2022/03/22 03:20:13;;;;;;;32.23;18.77;;;;;;;;;;6191101;28;20170;-71
2022/03/22 03:23:15;;;;;;;30.58;18.45;;;;;;;;;;6186578;28;20042;-71
2022/03/22 03:26:17;;;;;;;29.33;17.88;;;;;;;;;;6185108;28;20129;-71
2022/03/22 03:29:19;;;;;;;32.47;17.27;;;;;;;;;;6179836;28;20112;-71
2022/03/22 03:32:21;;;;;;;29.52;18.35;;;;;;;;;;6190254;28;20050;-70
2022/03/22 03:35:22;;;;;;;26.85;17.13;;;;;;;;;;6189473;28;20137;-71
2022/03/22 03:38:24;;;;;;;30.77;17.90;;;;;;;;;;6189273;28;20520;-71
2022/03/22 03:48:05;;;;;;;32.83;18.92;;;;;;;;;;6189106;28;20542;-70
2022/03/22 03:51:06;;;;;;;31.95;18.30;;;;;;;;;;6193306;28;20069;-70
2022/03/22 03:54:08;;;;;;;33.58;19.10;;;;;;;;;;6187577;28;20244;-70
2022/03/22 03:57:11;;;;;;;31.65;17.10;;;;;;;;;;6188839;28;20137;-70
2022/03/22 04:00:15;;;;;;;29.08;18.00;;;;;;;;;;6180710;28;20050;-70
2022/03/22 04:03:17;;;;;;;32.95;17.98;;;;;;;;;;6184327;28;20043;-70
2022/03/22 04:06:18;;;;;;;31.42;17.88;;;;;;;;;;6182660;28;20050;-71
2022/03/22 04:09:20;;;;;;;29.65;17.02;;;;;;;;;;6187285;28;20050;-70
2022/03/22 04:12:23;;;;;;;28.98;17.63;;;;;;;;;;6187442;28;20600;-70
2022/03/22 04:15:25;;;;;;;33.17;17.97;;;;;;;;;;6188849;28;20059;-71
2022/03/22 04:18:27;;;;;;;29.35;16.52;;;;;;;;;;6184965;28;20976;-70
2022/03/22 04:21:29;;;;;;;26.88;15.98;;;;;;;;;;6185377;28;20050;-70
2022/03/22 04:24:31;;;;;;;27.70;17.00;;;;;;;;;;6183489;28;20059;-71
2022/03/22 04:34:11;;;;;;;28.17;16.92;;;;;;;;;;6185636;28;20051;-70
2022/03/22 04:37:15;;;;;;;28.73;16.17;;;;;;;;;;6187884;28;20505;-70
2022/03/22 04:40:17;;;;;;;27.50;16.57;;;;;;;;;;6187012;28;20141;-70
2022/03/22 04:43:20;;;;;;;29.55;17.63;;;;;;;;;;6190517;28;20500;-71
2022/03/22 04:46:22;;;;;;;32.25;17.30;;;;;;;;;;6191494;28;20056;-70
2022/03/22 04:49:23;;;;;;;31.17;17.83;;;;;;;;;;6188877;28;20043;-71
2022/03/22 04:59:05;;;;;;;31.77;16.77;;;;;;;;;;6187964;28;20057;-70
2022/03/22 05:02:06;;;;;;;29.38;17.63;;;;;;;;;;6183948;28;20053;-71
2022/03/22 05:05:08;;;;;;;30.20;17.70;;;;;;;;;;6179350;28;20051;-70
2022/03/22 05:08:10;;;;;;;29.70;17.05;;;;;;;;;;6178836;28;21719;-70
2022/03/22 05:11:11;;;;;;;29.08;17.40;;;;;;;;;;6194678;28;20055;-71
2022/03/22 05:14:14;;;;;;;31.27;16.25;;;;;;;;;;6189244;28;20108;-71
2022/03/22 05:17:21;;;;;;;29.17;16.42;;;;;;;;;;6186323;28;20553;-71
2022/03/22 05:20:22;;;;;;;31.20;17.10;;;;;;;;;;6190123;28;20069;-71
2022/03/22 05:23:24;;;;;;;28.10;16.63;;;;;;;;;;6190698;28;20046;-71
2022/03/22 05:26:26;;;;;;;34.55;15.98;;;;;;;;;;6187927;28;20125;-71
2022/03/22 05:29:30;;;;;;;30.85;17.40;;;;;;;;;;6188011;28;20510;-71
2022/03/22 05:32:31;;;;;;;31.17;17.00;;;;;;;;;;6189764;28;20057;-71
2022/03/22 05:35:33;;;;;;;31.35;15.80;;;;;;;;;;6187791;28;20126;-70
2022/03/22 05:38:35;;;;;;;28.45;16.95;;;;;;;;;;6183826;28;20042;-71
2022/03/22 05:41:37;;;;;;;29.42;16.40;;;;;;;;;;6186957;28;20125;-71
2022/03/22 05:44:39;;;;;;;31.15;16.20;;;;;;;;;;6188633;28;20149;-71
2022/03/22 05:47:41;;;;;;;25.92;16.60;;;;;;;;;;6187194;28;20051;-71
2022/03/22 05:50:43;;;;;;;30.40;15.90;;;;;;;;;;6191380;28;20190;-72
2022/03/22 05:53:45;;;;;;;25.42;15.93;;;;;;;;;;6197953;28;20129;-71
2022/03/22 05:56:47;;;;;;;25.70;15.85;;;;;;;;;;6196870;28;20034;-72
2022/03/22 05:59:50;;;;;;;30.17;16.88;;;;;;;;;;6196887;28;20188;-71
2022/03/22 06:02:51;;;;;;;27.15;16.92;;;;;;;;;;6195547;28;20062;-71
2022/03/22 06:05:53;;;;;;;31.40;16.77;;;;;;;;;;6195065;28;20066;-72
2022/03/22 06:08:54;;;;;;;28.65;16.02;;;;;;;;;;6196139;28;20350;-70
2022/03/22 06:11:56;;;;;;;29.65;16.98;;;;;;;;;;6188417;28;20859;-71
2022/03/22 06:18:14;;;;;;;32.13;16.30;;;;;;;;;;6188373;28;20034;-70
2022/03/22 06:21:16;;;;;;;31.33;18.00;;;;;;;;;;6186609;28;20051;-70
2022/03/22 06:24:17;;;;;;;29.55;18.13;;;;;;;;;;6183037;28;20039;-70
2022/03/22 06:27:19;;;;;;;28.80;18.00;;;;;;;;;;6186430;28;20137;-71
2022/03/22 06:30:23;;;;;;;28.63;16.73;;;;;;;;;;6192338;28;20047;-71
2022/03/22 06:33:24;;;;;;;27.00;16.13;;;;;;;;;;6198842;28;20078;-70
2022/03/22 06:36:26;;;;;;;30.13;16.50;;;;;;;;;;6198658;28;20153;-71
2022/03/22 06:39:27;;;;;;;31.15;16.42;;;;;;;;;;6194861;28;20074;-71
2022/03/22 06:42:29;;;;;;;27.92;17.25;;;;;;;;;;6192862;28;20062;-71
2022/03/22 06:45:32;;;;;;;27.40;15.95;;;;;;;;;;6188084;28;20137;-71
2022/03/22 06:48:33;;;;;;;26.75;17.00;;;;;;;;;;6187885;28;20097;-70
2022/03/22 06:51:35;;;;;;;30.00;16.83;;;;;;;;;;6186706;28;20141;-71
2022/03/22 06:54:37;;;;;;;26.10;17.05;;;;;;;;;;6187334;28;20105;-70
2022/03/22 06:57:39;;;;;;;31.38;18.35;;;;;;;;;;6185143;28;20062;-71
2022/03/22 07:00:42;;;;;;;29.05;17.25;;;;;;;;;;6185871;28;20050;-71
2022/03/22 07:03:43;;;;;;;30.73;17.52;;;;;;;;;;6190332;28;20185;-70
2022/03/22 07:06:46;;;;;;;30.70;17.67;;;;;;;;;;6190318;28;20162;-69
2022/03/22 07:09:47;;;;;;;25.15;16.95;;;;;;;;;;6193594;28;20105;-71
2022/03/22 07:12:51;;;;;;;27.52;17.83;;;;;;;;;;6193908;28;20186;-75
2022/03/22 07:15:54;;;;;;;32.22;18.27;;;;;;;;;;6190468;28;20046;-78
2022/03/22 07:18:56;;;;;;;34.58;16.73;;;;;;;;;;6191900;28;20137;-80
2022/03/22 07:21:58;;;;;;;29.27;17.10;;;;;;;;;;6187956;28;20181;-80
2022/03/22 07:24:59;;;;;;;26.17;16.98;;;;;;;;;;6183791;28;20049;-78
2022/03/22 07:28:01;;;;;;;24.10;15.50;;;;;;;;;;6185011;28;20621;-79
2022/03/22 07:31:04;;;;;;;43.67;18.13;;;;;;;;;;6183961;28;20046;-78
2022/03/22 07:34:06;;;;;;;27.80;16.97;;;;;;;;;;6180887;28;20171;-80
2022/03/22 07:37:08;;;;;;;27.42;17.45;;;;;;;;;;6185462;28;20458;-79
2022/03/22 07:40:11;;;;;;;28.33;16.13;;;;;;;;;;6188682;28;20089;-78
2022/03/22 07:43:13;;;;;;;28.10;17.65;;;;;;;;;;6187965;28;20206;-80
2022/03/22 07:46:16;;;;;;;25.88;16.27;;;;;;;;;;6185151;28;20082;-79
2022/03/22 07:55:56;;;;;;;23.52;15.60;;;;;;;;;;6189361;28;20059;-72
2022/03/22 07:58:57;;;;;;;37.45;16.40;;;;;;;;;;6187282;28;20086;-72
2022/03/22 08:02:01;;;;;;;20.83;14.43;;;;;;;;;;6185834;28;20455;-73
2022/03/22 08:05:02;;;;;;;20.27;14.17;;;;;;;;;;6186928;28;20057;-73
2022/03/22 08:08:04;;;;;;;21.17;14.23;;;;;;;;;;6192608;28;20488;-73
2022/03/22 08:11:06;;;;;;;23.33;14.02;;;;;;;;;;6184360;28;20189;-73
2022/03/22 08:14:08;;;;;;;19.48;13.45;;;;;;;;;;6187969;28;20053;-73
2022/03/22 08:17:11;;;;;;;26.02;13.48;;;;;;;;;;6189613;28;20521;-71
2022/03/22 08:20:14;;;;;;;40.55;15.82;;;;;;;;;;6188475;28;20056;-70
2022/03/22 08:23:15;;;;;;;20.80;13.25;;;;;;;;;;6184641;28;20042;-67
2022/03/22 08:26:17;;;;;;;23.52;13.63;;;;;;;;;;6185965;28;20118;-68
2022/03/22 08:29:18;;;;;;;19.38;13.07;;;;;;;;;;6186508;28;20129;-71
2022/03/22 08:32:22;;;;;;;25.25;14.05;;;;;;;;;;6186830;28;20054;-70
2022/03/22 08:35:24;;;;;;;14.60;12.03;;;;;;;;;;6188845;28;20043;-82
2022/03/22 08:38:26;;;;;;;21.35;13.70;;;;;;;;;;6185917;28;20449;-81
2022/03/22 08:41:27;;;;;;;19.98;12.60;;;;;;;;;;6182793;28;20054;-72
2022/03/22 08:44:29;;;;;;;14.38;11.65;;;;;;;;;;6185327;28;20117;-72
2022/03/22 08:47:34;;;;;;;17.27;11.68;;;;;;;;;;6189516;28;20048;-71
2022/03/22 08:50:36;;;;;;;16.70;11.23;;;;;;;;;;6190534;28;20058;-70
2022/03/22 08:53:38;;;;;;;16.83;10.10;;;;;;;;;;6186996;28;20047;-70
2022/03/22 08:56:39;;;;;;;19.05;12.52;;;;;;;;;;6183858;28;20125;-73
2022/03/22 08:59:41;;;;;;;17.15;11.20;;;;;;;;;;6185470;28;20501;-71
2022/03/22 09:02:48;;;;;;;16.25;11.35;;;;;;;;;;6183875;28;20133;-71
2022/03/22 09:09:10;;;;;;;17.83;11.00;;;;;;;;;;6192531;28;20074;-72
2022/03/22 09:12:12;;;;;;;11.88;9.60;;;;;;;;;;6188039;28;20057;-70
2022/03/22 09:15:14;;;;;;;12.95;9.27;;;;;;;;;;6190392;28;20050;-70
2022/03/22 09:18:17;;;;;;;13.70;9.30;;;;;;;;;;6191253;28;20114;-71
2022/03/22 09:21:19;;;;;;;15.75;9.73;;;;;;;;;;6194202;28;20046;-71
2022/03/22 09:24:21;;;;;;;15.52;10.35;;;;;;;;;;6194704;28;20124;-70
2022/03/22 09:27:22;;;;;;;13.90;9.93;;;;;;;;;;6193471;28;20085;-71
2022/03/22 09:30:24;;;;;;;12.45;9.52;;;;;;;;;;6190990;28;20092;-70
2022/03/22 09:33:27;;;;;;;16.65;10.10;;;;;;;;;;6193117;28;20066;-72
2022/03/22 09:36:28;;;;;;;12.47;9.27;;;;;;;;;;6189035;28;20122;-71
2022/03/22 09:39:30;;;;;;;13.30;9.88;;;;;;;;;;6190777;28;20559;-70
2022/03/22 09:42:31;;;;;;;13.80;9.95;;;;;;;;;;6188069;28;20050;-71
2022/03/22 09:45:34;;;;;;;15.30;9.93;;;;;;;;;;6185039;28;20055;-71
2022/03/22 09:48:37;;;;;;;13.98;9.82;;;;;;;;;;6184402;28;20128;-71
2022/03/22 09:51:48;;;;;;;14.88;10.57;;;;;;;;;;6191612;28;20061;-71
2022/03/22 09:54:50;;;;;;;14.13;10.27;;;;;;;;;;6188837;28;20090;-73
2022/03/22 09:57:51;;;;;;;13.45;9.65;;;;;;;;;;6192247;28;20508;-69
2022/03/22 10:00:53;;;;;;;12.82;9.13;;;;;;;;;;6198567;28;20046;-69
2022/03/22 10:04:03;;;;;;;14.68;10.35;;;;;;;;;;6196062;28;20549;-70
2022/03/22 10:07:06;;;;;;;13.00;9.40;;;;;;;;;;6193006;28;20442;-69
2022/03/22 10:10:08;;;;;;;11.85;9.30;;;;;;;;;;6191557;28;20130;-69
2022/03/22 10:13:09;;;;;;;15.30;10.38;;;;;;;;;;6190041;28;20141;-69
2022/03/22 10:16:11;;;;;;;14.57;10.27;;;;;;;;;;6186180;28;20772;-69
2022/03/22 10:19:19;;;;;;;15.48;10.00;;;;;;;;;;6185541;28;20057;-70
2022/03/22 10:22:23;;;;;;;12.00;9.90;;;;;;;;;;6183751;28;20136;-69
2022/03/22 10:25:25;;;;;;;11.52;9.55;;;;;;;;;;6186239;28;20062;-70
2022/03/22 10:28:27;;;;;;;12.75;9.82;;;;;;;;;;6185511;28;20046;-71
2022/03/22 10:31:37;;;;;;;13.00;10.77;;;;;;;;;;6190152;28;20088;-69
2022/03/22 10:34:42;;;;;;;12.02;9.10;;;;;;;;;;6195797;28;20073;-69
2022/03/22 10:37:45;;;;;;;12.27;10.07;;;;;;;;;;6198533;28;20054;-68
2022/03/22 10:40:48;;;;;;;13.35;10.07;;;;;;;;;;6190710;28;20552;-69
2022/03/22 10:43:49;;;;;;;16.90;10.18;;;;;;;;;;6191189;28;20059;-69
2022/03/22 10:46:51;;;;;;;11.02;9.20;;;;;;;;;;6190315;28;20185;-67
2022/03/22 10:50:04;;;;;;;10.88;9.70;;;;;;;;;;6188481;28;20129;-66
2022/03/22 10:53:06;;;;;;;10.40;9.18;;;;;;;;;;6185576;28;20145;-65
2022/03/22 10:56:08;;;;;;;11.68;9.32;;;;;;;;;;6183074;28;21056;-66
2022/03/22 10:59:10;;;;;;;10.95;9.20;;;;;;;;;;6184675;28;20047;-69
2022/03/22 11:02:12;;;;;;;12.98;10.07;;;;;;;;;;6181184;28;20061;-68
2022/03/22 11:05:15;;;;;;;13.65;9.85;;;;;;;;;;6178664;28;20047;-69
2022/03/22 11:08:19;;;;;;;11.10;9.40;;;;;;;;;;6190844;28;20093;-68
2022/03/22 11:11:21;;;;;;;12.43;9.75;;;;;;;;;;6196869;28;20043;-69
2022/03/22 11:14:22;;;;;;;13.43;10.27;;;;;;;;;;6191483;28;20053;-68
2022/03/22 11:17:25;;;;;;;11.18;9.27;;;;;;;;;;6192439;28;20177;-68
2022/03/22 11:20:29;;;;;;;12.75;10.07;;;;;;;;;;6188586;28;20495;-68
2022/03/22 11:23:30;;;;;;;;;;;;;;;;;;6187544;28;20092;-69
2022/03/22 11:26:39;;;;;;;13.48;9.45;;;;;;;;;;6181616;28;19922;-69
2022/03/22 11:29:42;;;;;;;12.77;9.68;;;;;;;;;;6186560;28;20046;-69
2022/03/22 11:36:19;;;;;;;10.98;9.73;;;;;;;;;;6183960;28;20046;-69
2022/03/22 11:42:15;;;;;;;11.57;9.20;;;;;;;;;;6180115;28;20410;-69
2022/03/22 11:42:51;;;;;;;11.57;10.38;;;;;;;;;;6187302;28;20054;-69
2022/03/22 11:45:53;;;;;;;12.60;9.15;;;;;;;;;;6185808;28;20042;-71
2022/03/22 11:48:54;;;;;;;9.80;8.88;;;;;;;;;;6187428;28;20089;-69
2022/03/22 11:51:58;;;;;;;12.73;8.68;;;;;;;;;;6188423;28;20452;-70
2022/03/22 11:55:02;;;;;;;9.90;8.52;;;;;;;;;;6190439;28;20070;-67
2022/03/22 11:58:08;;;;;;;10.82;9.77;;;;;;;;;;6186970;28;20047;-68
2022/03/22 12:01:16;;;;;;;10.45;8.85;;;;;;;;;;6186820;28;20050;-69
2022/03/22 12:04:17;;;;;;;10.65;9.55;;;;;;;;;;6183995;28;20047;-68
2022/03/22 12:07:27;;;;;;;12.63;9.25;;;;;;;;;;6188173;28;20164;-70
2022/03/22 12:10:29;;;;;;;11.75;10.52;;;;;;;;;;6181724;28;20133;-68
2022/03/22 12:13:31;;;;;;;14.32;9.50;;;;;;;;;;6183389;28;20221;-68
2022/03/22 12:16:32;;;;;;;11.18;10.07;;;;;;;;;;6182363;28;20394;-66
2022/03/22 12:19:36;;;;;;;11.07;9.75;;;;;;;;;;6187458;28;20051;-67
2022/03/22 12:22:43;;;;;;;11.05;9.98;;;;;;;;;;6180694;28;20394;-67
2022/03/22 12:25:45;;;;;;;11.52;9.35;;;;;;;;;;6184954;28;20144;-72
2022/03/22 12:28:48;;;;;;;13.07;9.38;;;;;;;;;;6185231;28;20128;-74
2022/03/22 12:31:50;;;;;;;17.20;10.02;;;;;;;;;;6187536;28;20355;-72
2022/03/22 12:34:51;;;;;;;;;;;;;;;;;;6184060;28;20103;-73
2022/03/22 12:37:55;;;;;;;10.85;9.73;;;;;;;;;;6187559;28;20401;-71
2022/03/22 12:40:57;;;;;;;12.98;9.75;;;;;;;;;;6186282;28;20052;-69
2022/03/22 12:43:58;;;;;;;11.90;10.70;;;;;;;;;;6183381;28;20046;-71
2022/03/22 12:47:00;;;;;;;14.50;10.27;;;;;;;;;;6184172;28;20132;-72
2022/03/22 12:50:02;;;;;;;11.88;10.43;;;;;;;;;;6184941;28;20210;-72
2022/03/22 12:53:05;;;;;;;14.32;11.10;;;;;;;;;;6188107;28;20053;-69
2022/03/22 12:56:14;;;;;;;12.60;10.20;;;;;;;;;;6186925;28;20122;-70
2022/03/22 12:59:19;;;;;;;13.65;10.65;;;;;;;;;;6189831;28;20063;-69
2022/03/22 13:02:21;;;;;;;12.07;10.50;;;;;;;;;;6190490;28;20092;-72
2022/03/22 13:05:27;;;;;;;16.63;11.20;;;;;;;;;;6186452;28;20109;-73
2022/03/22 13:11:26;;;;;;;11.90;10.70;;;;;;;;;;6186579;28;20184;-74
2022/03/22 13:11:52;;;;;;;12.95;10.75;;;;;;;;;;6189400;28;20051;-73
2022/03/22 13:15:05;;;;;;;12.75;11.00;;;;;;;;;;6182640;28;20058;-72
2022/03/22 13:18:07;;;;;;;12.20;10.88;;;;;;;;;;6182242;28;20060;-73
2022/03/22 13:21:09;;;;;;;13.75;10.95;;;;;;;;;;6185987;28;20126;-73
2022/03/22 13:24:17;;;;;;;12.68;11.18;;;;;;;;;;6184332;28;20047;-74
2022/03/22 13:27:24;;;;;;;12.48;11.18;;;;;;;;;;6187580;28;20043;-73
2022/03/22 13:30:26;;;;;;;12.15;10.85;;;;;;;;;;6187800;28;20053;-73
2022/03/22 13:33:33;;;;;;;12.10;10.80;;;;;;;;;;6185626;28;20097;-74
2022/03/22 13:36:34;;;;;;;12.85;10.70;;;;;;;;;;6184500;28;20068;-75
2022/03/22 13:39:38;;;;;;;14.13;11.90;;;;;;;;;;6185182;28;20190;-73
2022/03/22 13:42:56;;;;;;;14.50;11.52;;;;;;;;;;6183469;28;20405;-75
2022/03/22 13:46:01;;;;;;;14.48;11.55;;;;;;;;;;6182716;28;20088;-75
2022/03/22 13:49:07;;;;;;;13.63;11.70;;;;;;;;;;6180334;28;20082;-73
2022/03/22 13:52:08;;;;;;;19.60;12.13;;;;;;;;;;6186579;28;20179;-75
2022/03/22 13:55:19;;;;;;;15.52;10.98;;;;;;;;;;6184175;28;20584;-73
2022/03/22 13:58:22;;;;;;;12.60;11.13;;;;;;;;;;6185898;28;20053;-74
2022/03/22 14:01:24;;;;;;;17.85;10.95;;;;;;;;;;6189332;28;20124;-74
2022/03/22 14:04:25;;;;;;;14.95;12.05;;;;;;;;;;6192693;28;20054;-73
2022/03/22 14:07:27;;;;;;;12.90;11.60;;;;;;;;;;6192141;28;20139;-74
2022/03/22 14:10:30;;;;;;;15.50;12.05;;;;;;;;;;6190384;28;20483;-77
2022/03/22 14:13:32;;;;;;;14.65;11.43;;;;;;;;;;6188418;28;20054;-74
2022/03/22 14:16:33;;;;;;;13.35;11.50;;;;;;;;;;6186987;28;20100;-76
2022/03/22 14:19:35;;;;;;;14.93;11.23;;;;;;;;;;6188809;28;20054;-73
2022/03/22 14:22:36;;;;;;;13.85;11.85;;;;;;;;;;6187709;28;20075;-73
2022/03/22 14:25:41;;;;;;;13.63;11.05;;;;;;;;;;6189786;28;20042;-75
2022/03/22 14:28:42;;;;;;;16.83;11.23;;;;;;;;;;6187312;28;20073;-73
2022/03/22 14:31:44;;;;;;;12.43;11.13;;;;;;;;;;6194415;28;20050;-70
2022/03/22 14:38:06;;;;;;;15.55;11.15;;;;;;;;;;6196487;28;20054;-68
2022/03/22 14:44:24;;;;;;;12.13;10.82;;;;;;;;;;6189926;28;19926;-69
2022/03/22 14:47:27;;;;;;;15.60;11.75;;;;;;;;;;6194259;28;20158;-69
2022/03/22 14:50:29;;;;;;;13.20;11.07;;;;;;;;;;6188581;28;20403;-68
2022/03/22 15:00:11;;;;;;;15.52;11.75;;;;;;;;;;6185855;28;20062;-73
2022/03/22 15:03:16;;;;;;;12.65;11.30;;;;;;;;;;6183804;28;20082;-71
2022/03/22 15:06:18;;;;;;;13.93;11.07;;;;;;;;;;6184182;28;20046;-71
2022/03/22 15:09:20;;;;;;;14.00;11.40;;;;;;;;;;6191512;28;20050;-71
2022/03/22 15:12:23;;;;;;;14.98;11.77;;;;;;;;;;6196324;28;20050;-71
2022/03/22 15:15:24;;;;;;;;;;;;;;;;;;6197217;28;20562;-71
2022/03/22 15:18:26;;;;;;;13.05;11.75;;;;;;;;;;6190108;28;20408;-67
2022/03/22 15:21:27;;;;;;;15.52;11.85;;;;;;;;;;6190260;28;20193;-71
2022/03/22 15:24:29;;;;;;;14.50;12.18;;;;;;;;;;6186530;28;20066;-71
2022/03/22 15:27:32;;;;;;;14.63;11.15;;;;;;;;;;6187428;28;20081;-70
2022/03/22 15:30:33;;;;;;;13.32;11.57;;;;;;;;;;6184064;28;20124;-71
2022/03/22 15:33:35;;;;;;;14.50;11.52;;;;;;;;;;6183259;28;20051;-70
2022/03/22 15:36:37;;;;;;;26.17;12.48;;;;;;;;;;6181189;28;20229;-71
2022/03/22 15:39:39;;;;;;;14.35;12.88;;;;;;;;;;6179006;28;20054;-71
2022/03/22 15:42:42;;;;;;;19.00;12.85;;;;;;;;;;6179373;28;20042;-70
2022/03/22 15:45:44;;;;;;;14.95;12.23;;;;;;;;;;6177693;28;20189;-71
2022/03/22 15:48:45;;;;;;;14.02;12.15;;;;;;;;;;6186011;28;20056;-71
2022/03/22 15:51:49;;;;;;;15.57;12.32;;;;;;;;;;6191960;28;20481;-72
2022/03/22 15:54:51;;;;;;;16.52;12.15;;;;;;;;;;6191837;28;20056;-71
2022/03/22 15:57:55;;;;;;;18.58;12.43;;;;;;;;;;6190055;28;20057;-71
2022/03/22 16:00:57;;;;;;;20.67;13.05;;;;;;;;;;6187375;28;20058;-71
2022/03/22 16:03:58;;;;;;;17.25;12.43;;;;;;;;;;6187038;28;20059;-72
2022/03/22 16:07:00;;;;;;;15.63;13.00;;;;;;;;;;6186338;28;20548;-71
2022/03/22 16:10:03;;;;;;;15.70;13.07;;;;;;;;;;6184656;28;20077;-71
2022/03/22 16:13:05;;;;;;;20.35;12.48;;;;;;;;;;6180691;28;20104;-71
2022/03/22 16:16:08;;;;;;;17.20;12.90;;;;;;;;;;6180254;28;20193;-71
2022/03/22 16:19:10;;;;;;;16.60;12.75;;;;;;;;;;6183248;28;20174;-70
2022/03/22 16:22:13;;;;;;;18.23;12.70;;;;;;;;;;6187623;28;20066;-71
2022/03/22 16:25:15;;;;;;;14.50;13.00;;;;;;;;;;6180327;28;20126;-73
2022/03/22 16:28:18;;;;;;;16.30;12.60;;;;;;;;;;6177225;28;20406;-73
2022/03/22 16:31:20;;;;;;;17.63;13.43;;;;;;;;;;6188475;28;20042;-74
2022/03/22 16:37:40;;;;;;;21.55;13.80;;;;;;;;;;6185886;28;20051;-74
2022/03/22 16:40:43;;;;;;;15.63;12.90;;;;;;;;;;6184498;28;20145;-75
2022/03/22 16:43:46;;;;;;;17.17;12.75;;;;;;;;;;6183265;28;20050;-75
2022/03/22 16:46:48;;;;;;;15.55;13.30;;;;;;;;;;6182412;28;20046;-74
2022/03/22 16:49:52;;;;;;;19.98;13.52;;;;;;;;;;6183665;28;20844;-72
2022/03/22 16:52:53;;;;;;;18.23;13.35;;;;;;;;;;6182651;28;20483;-75
2022/03/22 16:55:57;;;;;;;21.38;14.10;;;;;;;;;;6183122;28;20411;-73
2022/03/22 16:59:00;;;;;;;20.20;13.07;;;;;;;;;;6187059;28;20042;-72
2022/03/22 17:02:02;;;;;;;19.30;13.43;;;;;;;;;;6182876;28;20370;-73
2022/03/22 17:05:04;;;;;;;18.55;13.40;;;;;;;;;;6180839;28;20070;-74
2022/03/22 17:08:05;;;;;;;17.75;13.48;;;;;;;;;;6188805;28;20381;-73
2022/03/22 17:11:09;;;;;;;14.73;13.07;;;;;;;;;;6187675;28;20054;-74
2022/03/22 17:14:12;;;;;;;17.05;12.77;;;;;;;;;;6186364;28;20062;-72
2022/03/22 17:17:13;;;;;;;17.38;12.60;;;;;;;;;;6186892;28;20483;-73
2022/03/22 17:20:15;;;;;;;22.02;13.50;;;;;;;;;;6183295;28;20088;-73
2022/03/22 17:23:17;;;;;;;20.23;13.52;;;;;;;;;;6181675;28;20046;-74
2022/03/22 17:26:21;;;;;;;20.02;13.50;;;;;;;;;;6182483;28;20046;-74
2022/03/22 17:29:24;;;;;;;18.65;12.98;;;;;;;;;;6185395;28;20133;-74
2022/03/22 17:32:25;;;;;;;20.33;13.17;;;;;;;;;;6184962;28;20118;-74
2022/03/22 17:35:27;;;;;;;19.02;14.02;;;;;;;;;;6186954;28;20181;-74
2022/03/22 17:38:29;;;;;;;20.27;13.30;;;;;;;;;;6190990;28;20196;-75
2022/03/22 17:41:33;;;;;;;21.15;13.80;;;;;;;;;;6190663;28;20203;-73
2022/03/22 17:44:36;;;;;;;16.75;12.52;;;;;;;;;;6189029;28;20070;-74
2022/03/22 17:47:38;;;;;;;17.20;12.87;;;;;;;;;;6186270;28;20128;-72
2022/03/22 17:50:40;;;;;;;21.23;12.95;;;;;;;;;;6188468;28;20475;-75
2022/03/22 17:53:43;;;;;;;23.90;13.85;;;;;;;;;;6190023;28;20498;-72
2022/03/22 17:56:45;;;;;;;23.65;13.93;;;;;;;;;;6187127;28;20066;-72
2022/03/22 17:59:48;;;;;;;18.17;12.88;;;;;;;;;;6186525;28;20149;-74
2022/03/22 18:02:49;;;;;;;17.00;12.15;;;;;;;;;;6183188;28;20042;-74
2022/03/22 18:05:51;;;;;;;17.50;12.68;;;;;;;;;;6186639;28;20054;-73
2022/03/22 18:08:54;;;;;;;17.85;12.65;;;;;;;;;;6190729;28;20054;-75
2022/03/22 18:11:56;;;;;;;18.48;12.75;;;;;;;;;;6189266;28;20558;-75
2022/03/22 18:14:59;;;;;;;18.42;12.68;;;;;;;;;;6187579;28;20059;-73
2022/03/22 18:18:01;;;;;;;18.33;12.82;;;;;;;;;;6186015;28;20042;-69
2022/03/22 18:21:04;;;;;;;16.83;12.43;;;;;;;;;;6182631;28;20539;-70
2022/03/22 18:24:07;;;;;;;25.73;13.83;;;;;;;;;;6182052;28;20043;-69
2022/03/22 18:27:08;;;;;;;27.88;14.48;;;;;;;;;;6180866;28;20043;-71
2022/03/22 18:30:13;;;;;;;22.85;13.32;;;;;;;;;;6185910;28;20441;-68
2022/03/22 18:33:16;;;;;;;18.25;12.55;;;;;;;;;;6185734;28;20513;-69
2022/03/22 18:36:18;;;;;;;17.70;12.18;;;;;;;;;;6184064;28;20053;-69
2022/03/22 18:39:20;;;;;;;15.65;12.57;;;;;;;;;;6186216;28;20043;-71
2022/03/22 18:42:24;;;;;;;19.42;13.40;;;;;;;;;;6192187;28;20050;-71
2022/03/22 18:45:26;;;;;;;25.75;14.27;;;;;;;;;;6190682;28;20061;-67
2022/03/22 18:48:28;;;;;;;21.77;15.00;;;;;;;;;;6184219;28;20758;-68
2022/03/22 18:51:30;;;;;;;25.63;14.05;;;;;;;;;;6187557;28;20196;-71